sensor_id;sensor_type;location;lat;lon;timestamp;P1;durP1;ratioP1;P2;durP2;ratioP2
25327;SDS011;13279;51.300;12.394;2022-10-10T00:01:40;9.23;;;2.57;;
25327;SDS011;13279;51.300;12.394;2022-10-10T00:04:07;6.90;;;2.47;;
25327;SDS011;13279;51.300;12.394;2022-10-10T00:06:35;4.37;;;2.27;;
25327;SDS011;13279;51.300;12.394;2022-10-10T00:09:03;5.17;;;2.63;;
25327;SDS011;13279;51.300;12.394;2022-10-10T00:11:30;4.87;;;2.50;;
25327;SDS011;13279;51.300;12.394;2022-10-10T00:13:59;6.20;;;2.43;;
25327;SDS011;13279;51.300;12.394;2022-10-10T00:16:26;5.63;;;2.83;;
25327;SDS011;13279;51.300;12.394;2022-10-10T00:18:55;2.60;;;2.40;;
25327;SDS011;13279;51.300;12.394;2022-10-10T00:21:22;5.10;;;2.60;;
25327;SDS011;13279;51.300;12.394;2022-10-10T00:23:50;8.17;;;2.63;;
25327;SDS011;13279;51.300;12.394;2022-10-10T00:26:18;6.33;;;2.90;;
25327;SDS011;13279;51.300;12.394;2022-10-10T00:28:46;3.20;;;2.20;;
25327;SDS011;13279;51.300;12.394;2022-10-10T00:31:14;5.03;;;2.40;;
25327;SDS011;13279;51.300;12.394;2022-10-10T00:33:41;7.00;;;2.87;;
25327;SDS011;13279;51.300;12.394;2022-10-10T00:36:10;7.70;;;3.07;;
25327;SDS011;13279;51.300;12.394;2022-10-10T00:38:37;8.33;;;2.73;;
25327;SDS011;13279;51.300;12.394;2022-10-10T00:41:05;5.23;;;2.60;;
25327;SDS011;13279;51.300;12.394;2022-10-10T00:43:33;5.97;;;3.03;;
25327;SDS011;13279;51.300;12.394;2022-10-10T00:46:01;3.00;;;2.20;;
25327;SDS011;13279;51.300;12.394;2022-10-10T00:48:29;13.23;;;3.27;;
25327;SDS011;13279;51.300;12.394;2022-10-10T00:50:59;6.60;;;2.80;;
25327;SDS011;13279;51.300;12.394;2022-10-10T00:53:32;6.90;;;2.23;;
25327;SDS011;13279;51.300;12.394;2022-10-10T00:56:04;5.07;;;2.70;;
25327;SDS011;13279;51.300;12.394;2022-10-10T00:58:32;15.60;;;3.60;;
25327;SDS011;13279;51.300;12.394;2022-10-10T01:01:01;12.37;;;2.87;;
25327;SDS011;13279;51.300;12.394;2022-10-10T01:03:29;6.90;;;2.30;;
25327;SDS011;13279;51.300;12.394;2022-10-10T01:05:56;4.67;;;2.80;;
25327;SDS011;13279;51.300;12.394;2022-10-10T01:08:23;9.67;;;2.60;;
25327;SDS011;13279;51.300;12.394;2022-10-10T01:10:57;5.23;;;2.60;;
25327;SDS011;13279;51.300;12.394;2022-10-10T01:13:41;10.13;;;2.87;;
25327;SDS011;13279;51.300;12.394;2022-10-10T01:16:18;8.13;;;3.10;;
25327;SDS011;13279;51.300;12.394;2022-10-10T01:18:52;4.47;;;3.07;;
25327;SDS011;13279;51.300;12.394;2022-10-10T01:21:25;4.47;;;2.80;;
25327;SDS011;13279;51.300;12.394;2022-10-10T01:24:13;6.87;;;2.80;;
25327;SDS011;13279;51.300;12.394;2022-10-10T01:27:23;4.27;;;2.50;;
25327;SDS011;13279;51.300;12.394;2022-10-10T01:29:56;4.80;;;2.60;;
25327;SDS011;13279;51.300;12.394;2022-10-10T01:32:31;7.07;;;3.13;;
25327;SDS011;13279;51.300;12.394;2022-10-10T01:35:11;4.57;;;3.00;;
25327;SDS011;13279;51.300;12.394;2022-10-10T01:37:46;6.93;;;3.20;;
25327;SDS011;13279;51.300;12.394;2022-10-10T01:40:21;8.73;;;3.27;;
25327;SDS011;13279;51.300;12.394;2022-10-10T01:42:54;7.67;;;2.80;;
25327;SDS011;13279;51.300;12.394;2022-10-10T01:45:26;8.20;;;3.20;;
25327;SDS011;13279;51.300;12.394;2022-10-10T01:47:56;6.67;;;2.97;;
25327;SDS011;13279;51.300;12.394;2022-10-10T01:50:27;9.37;;;3.10;;
25327;SDS011;13279;51.300;12.394;2022-10-10T01:53:01;6.07;;;3.37;;
25327;SDS011;13279;51.300;12.394;2022-10-10T01:55:41;4.80;;;2.60;;
25327;SDS011;13279;51.300;12.394;2022-10-10T01:58:20;4.53;;;3.00;;
25327;SDS011;13279;51.300;12.394;2022-10-10T02:01:05;9.40;;;3.60;;
25327;SDS011;13279;51.300;12.394;2022-10-10T02:03:42;4.40;;;2.73;;
25327;SDS011;13279;51.300;12.394;2022-10-10T02:06:16;9.80;;;3.50;;
25327;SDS011;13279;51.300;12.394;2022-10-10T02:08:49;5.97;;;3.97;;
25327;SDS011;13279;51.300;12.394;2022-10-10T02:11:20;3.10;;;2.40;;
25327;SDS011;13279;51.300;12.394;2022-10-10T02:13:50;6.70;;;2.83;;
25327;SDS011;13279;51.300;12.394;2022-10-10T02:16:21;5.50;;;3.60;;
25327;SDS011;13279;51.300;12.394;2022-10-10T02:18:53;5.50;;;3.17;;
25327;SDS011;13279;51.300;12.394;2022-10-10T02:21:24;7.67;;;3.23;;
25327;SDS011;13279;51.300;12.394;2022-10-10T02:23:53;7.03;;;3.10;;
25327;SDS011;13279;51.300;12.394;2022-10-10T02:26:23;5.40;;;2.70;;
25327;SDS011;13279;51.300;12.394;2022-10-10T02:28:54;6.67;;;2.87;;
25327;SDS011;13279;51.300;12.394;2022-10-10T02:31:30;5.97;;;2.83;;
25327;SDS011;13279;51.300;12.394;2022-10-10T02:34:05;7.03;;;3.27;;
25327;SDS011;13279;51.300;12.394;2022-10-10T02:36:35;7.30;;;3.10;;
25327;SDS011;13279;51.300;12.394;2022-10-10T02:39:05;7.97;;;3.10;;
25327;SDS011;13279;51.300;12.394;2022-10-10T02:41:55;8.87;;;2.90;;
25327;SDS011;13279;51.300;12.394;2022-10-10T02:44:23;6.73;;;3.13;;
25327;SDS011;13279;51.300;12.394;2022-10-10T02:46:53;5.03;;;2.77;;
25327;SDS011;13279;51.300;12.394;2022-10-10T02:49:25;4.80;;;3.00;;
25327;SDS011;13279;51.300;12.394;2022-10-10T02:51:54;11.97;;;3.20;;
25327;SDS011;13279;51.300;12.394;2022-10-10T02:54:22;5.33;;;3.47;;
25327;SDS011;13279;51.300;12.394;2022-10-10T02:56:49;9.33;;;2.90;;
25327;SDS011;13279;51.300;12.394;2022-10-10T02:59:17;6.40;;;3.00;;
25327;SDS011;13279;51.300;12.394;2022-10-10T03:01:44;5.43;;;3.00;;
25327;SDS011;13279;51.300;12.394;2022-10-10T03:04:14;10.07;;;3.10;;
25327;SDS011;13279;51.300;12.394;2022-10-10T03:06:42;5.50;;;3.00;;
25327;SDS011;13279;51.300;12.394;2022-10-10T03:09:10;4.60;;;2.80;;
25327;SDS011;13279;51.300;12.394;2022-10-10T03:11:37;9.33;;;3.00;;
25327;SDS011;13279;51.300;12.394;2022-10-10T03:14:05;6.13;;;3.27;;
25327;SDS011;13279;51.300;12.394;2022-10-10T03:16:33;5.57;;;3.10;;
25327;SDS011;13279;51.300;12.394;2022-10-10T03:19:00;9.57;;;3.53;;
25327;SDS011;13279;51.300;12.394;2022-10-10T03:21:30;8.57;;;3.20;;
25327;SDS011;13279;51.300;12.394;2022-10-10T03:23:57;5.53;;;3.03;;
25327;SDS011;13279;51.300;12.394;2022-10-10T03:26:26;10.53;;;3.03;;
25327;SDS011;13279;51.300;12.394;2022-10-10T03:28:53;10.57;;;4.10;;
25327;SDS011;13279;51.300;12.394;2022-10-10T03:31:21;13.53;;;3.43;;
25327;SDS011;13279;51.300;12.394;2022-10-10T03:33:48;6.73;;;3.00;;
25327;SDS011;13279;51.300;12.394;2022-10-10T03:36:16;5.90;;;3.10;;
25327;SDS011;13279;51.300;12.394;2022-10-10T03:38:44;4.00;;;2.83;;
25327;SDS011;13279;51.300;12.394;2022-10-10T03:41:11;6.67;;;3.00;;
25327;SDS011;13279;51.300;12.394;2022-10-10T03:43:39;8.77;;;3.20;;
25327;SDS011;13279;51.300;12.394;2022-10-10T03:46:07;4.73;;;3.10;;
25327;SDS011;13279;51.300;12.394;2022-10-10T03:48:34;4.57;;;3.30;;
25327;SDS011;13279;51.300;12.394;2022-10-10T03:51:01;5.27;;;3.53;;
25327;SDS011;13279;51.300;12.394;2022-10-10T03:53:30;4.03;;;2.97;;
25327;SDS011;13279;51.300;12.394;2022-10-10T03:55:59;6.60;;;3.53;;
25327;SDS011;13279;51.300;12.394;2022-10-10T03:58:27;7.33;;;2.93;;
25327;SDS011;13279;51.300;12.394;2022-10-10T04:00:54;6.63;;;3.50;;
25327;SDS011;13279;51.300;12.394;2022-10-10T04:03:26;6.97;;;3.97;;
25327;SDS011;13279;51.300;12.394;2022-10-10T04:05:54;4.27;;;3.20;;
25327;SDS011;13279;51.300;12.394;2022-10-10T04:08:22;7.27;;;2.93;;
25327;SDS011;13279;51.300;12.394;2022-10-10T04:10:49;4.73;;;2.80;;
25327;SDS011;13279;51.300;12.394;2022-10-10T04:13:20;6.50;;;2.87;;
25327;SDS011;13279;51.300;12.394;2022-10-10T04:15:50;9.30;;;2.73;;
25327;SDS011;13279;51.300;12.394;2022-10-10T04:18:18;5.03;;;3.10;;
25327;SDS011;13279;51.300;12.394;2022-10-10T04:20:46;4.80;;;3.90;;
25327;SDS011;13279;51.300;12.394;2022-10-10T04:23:13;11.73;;;3.90;;
25327;SDS011;13279;51.300;12.394;2022-10-10T04:25:41;5.30;;;3.27;;
25327;SDS011;13279;51.300;12.394;2022-10-10T04:28:09;7.20;;;3.57;;
25327;SDS011;13279;51.300;12.394;2022-10-10T04:30:39;5.60;;;3.33;;
25327;SDS011;13279;51.300;12.394;2022-10-10T04:33:07;6.60;;;3.50;;
25327;SDS011;13279;51.300;12.394;2022-10-10T04:35:34;11.03;;;4.27;;
25327;SDS011;13279;51.300;12.394;2022-10-10T04:38:01;8.93;;;3.10;;
25327;SDS011;13279;51.300;12.394;2022-10-10T04:40:29;9.80;;;3.80;;
25327;SDS011;13279;51.300;12.394;2022-10-10T04:42:56;8.10;;;3.27;;
25327;SDS011;13279;51.300;12.394;2022-10-10T04:45:24;7.50;;;4.10;;
25327;SDS011;13279;51.300;12.394;2022-10-10T04:47:53;8.10;;;3.80;;
25327;SDS011;13279;51.300;12.394;2022-10-10T04:50:21;10.77;;;4.37;;
25327;SDS011;13279;51.300;12.394;2022-10-10T04:52:49;8.93;;;3.07;;
25327;SDS011;13279;51.300;12.394;2022-10-10T04:55:16;12.33;;;3.60;;
25327;SDS011;13279;51.300;12.394;2022-10-10T04:57:44;8.53;;;4.10;;
25327;SDS011;13279;51.300;12.394;2022-10-10T05:00:12;10.77;;;4.37;;
25327;SDS011;13279;51.300;12.394;2022-10-10T05:02:39;7.30;;;3.80;;
25327;SDS011;13279;51.300;12.394;2022-10-10T05:05:08;9.63;;;4.13;;
25327;SDS011;13279;51.300;12.394;2022-10-10T05:07:36;7.87;;;3.90;;
25327;SDS011;13279;51.300;12.394;2022-10-10T05:10:03;9.83;;;3.87;;
25327;SDS011;13279;51.300;12.394;2022-10-10T05:12:32;7.07;;;3.73;;
25327;SDS011;13279;51.300;12.394;2022-10-10T05:14:59;9.83;;;3.17;;
25327;SDS011;13279;51.300;12.394;2022-10-10T05:17:30;7.57;;;3.73;;
25327;SDS011;13279;51.300;12.394;2022-10-10T05:19:58;8.23;;;3.33;;
25327;SDS011;13279;51.300;12.394;2022-10-10T05:22:27;4.70;;;3.77;;
25327;SDS011;13279;51.300;12.394;2022-10-10T05:24:54;10.67;;;3.60;;
25327;SDS011;13279;51.300;12.394;2022-10-10T05:27:24;14.13;;;4.50;;
25327;SDS011;13279;51.300;12.394;2022-10-10T05:29:51;7.07;;;3.97;;
25327;SDS011;13279;51.300;12.394;2022-10-10T05:32:20;8.60;;;3.83;;
25327;SDS011;13279;51.300;12.394;2022-10-10T05:34:47;10.37;;;4.30;;
25327;SDS011;13279;51.300;12.394;2022-10-10T05:37:15;5.57;;;3.37;;
25327;SDS011;13279;51.300;12.394;2022-10-10T05:39:44;9.50;;;4.03;;
25327;SDS011;13279;51.300;12.394;2022-10-10T05:42:12;6.47;;;3.80;;
25327;SDS011;13279;51.300;12.394;2022-10-10T05:44:39;7.13;;;3.60;;
25327;SDS011;13279;51.300;12.394;2022-10-10T05:47:07;8.63;;;3.70;;
25327;SDS011;13279;51.300;12.394;2022-10-10T05:49:35;6.97;;;3.23;;
25327;SDS011;13279;51.300;12.394;2022-10-10T05:52:02;9.20;;;4.00;;
25327;SDS011;13279;51.300;12.394;2022-10-10T05:54:29;9.63;;;3.73;;
25327;SDS011;13279;51.300;12.394;2022-10-10T05:56:58;11.17;;;3.73;;
25327;SDS011;13279;51.300;12.394;2022-10-10T05:59:27;10.67;;;3.60;;
25327;SDS011;13279;51.300;12.394;2022-10-10T06:01:55;6.27;;;3.00;;
25327;SDS011;13279;51.300;12.394;2022-10-10T06:04:23;8.93;;;3.43;;
25327;SDS011;13279;51.300;12.394;2022-10-10T06:06:50;5.80;;;3.63;;
25327;SDS011;13279;51.300;12.394;2022-10-10T06:09:17;6.23;;;3.60;;
25327;SDS011;13279;51.300;12.394;2022-10-10T06:11:45;11.17;;;4.10;;
25327;SDS011;13279;51.300;12.394;2022-10-10T06:14:13;9.20;;;3.80;;
25327;SDS011;13279;51.300;12.394;2022-10-10T06:16:41;3.90;;;3.20;;
25327;SDS011;13279;51.300;12.394;2022-10-10T06:19:10;6.80;;;3.40;;
25327;SDS011;13279;51.300;12.394;2022-10-10T06:21:37;15.67;;;3.90;;
25327;SDS011;13279;51.300;12.394;2022-10-10T06:24:05;9.10;;;4.00;;
25327;SDS011;13279;51.300;12.394;2022-10-10T06:26:35;10.70;;;4.00;;
25327;SDS011;13279;51.300;12.394;2022-10-10T06:29:02;11.93;;;3.90;;
25327;SDS011;13279;51.300;12.394;2022-10-10T06:31:31;5.57;;;3.77;;
25327;SDS011;13279;51.300;12.394;2022-10-10T06:33:58;10.27;;;3.40;;
25327;SDS011;13279;51.300;12.394;2022-10-10T06:36:26;4.60;;;3.50;;
25327;SDS011;13279;51.300;12.394;2022-10-10T06:38:53;7.47;;;3.50;;
25327;SDS011;13279;51.300;12.394;2022-10-10T06:41:21;9.67;;;4.50;;
25327;SDS011;13279;51.300;12.394;2022-10-10T06:43:48;7.80;;;3.87;;
25327;SDS011;13279;51.300;12.394;2022-10-10T06:46:17;8.80;;;4.30;;
25327;SDS011;13279;51.300;12.394;2022-10-10T06:48:46;8.37;;;4.30;;
25327;SDS011;13279;51.300;12.394;2022-10-10T06:51:14;6.37;;;3.60;;
25327;SDS011;13279;51.300;12.394;2022-10-10T06:53:43;6.37;;;3.87;;
25327;SDS011;13279;51.300;12.394;2022-10-10T06:56:11;8.33;;;3.83;;
25327;SDS011;13279;51.300;12.394;2022-10-10T06:58:45;13.10;;;4.60;;
25327;SDS011;13279;51.300;12.394;2022-10-10T07:01:13;4.80;;;3.60;;
25327;SDS011;13279;51.300;12.394;2022-10-10T07:03:43;7.97;;;4.30;;
25327;SDS011;13279;51.300;12.394;2022-10-10T07:06:12;12.17;;;4.43;;
25327;SDS011;13279;51.300;12.394;2022-10-10T07:08:41;12.40;;;4.50;;
25327;SDS011;13279;51.300;12.394;2022-10-10T07:11:08;8.37;;;4.13;;
25327;SDS011;13279;51.300;12.394;2022-10-10T07:13:36;9.27;;;5.13;;
25327;SDS011;13279;51.300;12.394;2022-10-10T07:16:04;7.80;;;4.00;;
25327;SDS011;13279;51.300;12.394;2022-10-10T07:18:32;6.03;;;4.10;;
25327;SDS011;13279;51.300;12.394;2022-10-10T07:21:01;8.00;;;4.03;;
25327;SDS011;13279;51.300;12.394;2022-10-10T07:23:30;11.57;;;5.03;;
25327;SDS011;13279;51.300;12.394;2022-10-10T07:25:59;8.33;;;3.67;;
25327;SDS011;13279;51.300;12.394;2022-10-10T07:28:27;9.47;;;4.03;;
25327;SDS011;13279;51.300;12.394;2022-10-10T07:30:57;12.03;;;4.00;;
25327;SDS011;13279;51.300;12.394;2022-10-10T07:33:29;17.60;;;4.80;;
25327;SDS011;13279;51.300;12.394;2022-10-10T07:35:58;8.47;;;4.97;;
25327;SDS011;13279;51.300;12.394;2022-10-10T07:38:25;15.53;;;4.40;;
25327;SDS011;13279;51.300;12.394;2022-10-10T07:40:54;10.97;;;4.63;;
25327;SDS011;13279;51.300;12.394;2022-10-10T07:43:22;13.27;;;4.47;;
25327;SDS011;13279;51.300;12.394;2022-10-10T07:45:50;15.97;;;4.13;;
25327;SDS011;13279;51.300;12.394;2022-10-10T07:48:17;8.70;;;4.90;;
25327;SDS011;13279;51.300;12.394;2022-10-10T07:50:45;8.20;;;4.57;;
25327;SDS011;13279;51.300;12.394;2022-10-10T07:53:12;13.43;;;4.87;;
25327;SDS011;13279;51.300;12.394;2022-10-10T07:55:40;7.07;;;3.93;;
25327;SDS011;13279;51.300;12.394;2022-10-10T07:58:09;13.37;;;4.97;;
25327;SDS011;13279;51.300;12.394;2022-10-10T08:00:38;12.23;;;4.43;;
25327;SDS011;13279;51.300;12.394;2022-10-10T08:03:06;15.77;;;4.10;;
25327;SDS011;13279;51.300;12.394;2022-10-10T08:05:37;11.20;;;3.83;;
25327;SDS011;13279;51.300;12.394;2022-10-10T08:08:05;6.83;;;3.83;;
25327;SDS011;13279;51.300;12.394;2022-10-10T08:10:32;7.67;;;3.80;;
25327;SDS011;13279;51.300;12.394;2022-10-10T08:13:00;9.70;;;3.80;;
25327;SDS011;13279;51.300;12.394;2022-10-10T08:15:29;6.53;;;3.50;;
25327;SDS011;13279;51.300;12.394;2022-10-10T08:17:56;7.30;;;3.53;;
25327;SDS011;13279;51.300;12.394;2022-10-10T08:20:24;3.63;;;2.97;;
25327;SDS011;13279;51.300;12.394;2022-10-10T08:22:51;12.07;;;3.27;;
25327;SDS011;13279;51.300;12.394;2022-10-10T08:25:19;4.43;;;3.07;;
25327;SDS011;13279;51.300;12.394;2022-10-10T08:27:46;10.50;;;3.93;;
25327;SDS011;13279;51.300;12.394;2022-10-10T08:30:14;7.17;;;3.20;;
25327;SDS011;13279;51.300;12.394;2022-10-10T08:32:43;5.50;;;2.83;;
25327;SDS011;13279;51.300;12.394;2022-10-10T08:35:28;10.13;;;3.33;;
25327;SDS011;13279;51.300;12.394;2022-10-10T08:37:56;5.37;;;3.30;;
25327;SDS011;13279;51.300;12.394;2022-10-10T08:40:24;7.27;;;3.00;;
25327;SDS011;13279;51.300;12.394;2022-10-10T08:42:53;12.67;;;3.47;;
25327;SDS011;13279;51.300;12.394;2022-10-10T08:45:24;12.13;;;3.93;;
25327;SDS011;13279;51.300;12.394;2022-10-10T08:47:56;10.37;;;3.50;;
25327;SDS011;13279;51.300;12.394;2022-10-10T08:50:27;11.27;;;3.00;;
25327;SDS011;13279;51.300;12.394;2022-10-10T08:52:59;7.40;;;3.03;;
25327;SDS011;13279;51.300;12.394;2022-10-10T08:55:33;10.97;;;3.10;;
25327;SDS011;13279;51.300;12.394;2022-10-10T08:58:04;5.57;;;2.60;;
25327;SDS011;13279;51.300;12.394;2022-10-10T09:00:38;12.53;;;2.90;;
25327;SDS011;13279;51.300;12.394;2022-10-10T09:03:13;6.93;;;2.77;;
25327;SDS011;13279;51.300;12.394;2022-10-10T09:05:50;12.17;;;3.20;;
25327;SDS011;13279;51.300;12.394;2022-10-10T09:08:33;8.17;;;2.70;;
25327;SDS011;13279;51.300;12.394;2022-10-10T09:11:12;5.20;;;2.60;;
25327;SDS011;13279;51.300;12.394;2022-10-10T09:13:56;5.67;;;2.13;;
25327;SDS011;13279;51.300;12.394;2022-10-10T09:16:32;8.47;;;2.73;;
25327;SDS011;13279;51.300;12.394;2022-10-10T09:19:07;8.83;;;3.30;;
25327;SDS011;13279;51.300;12.394;2022-10-10T09:21:49;10.53;;;2.90;;
25327;SDS011;13279;51.300;12.394;2022-10-10T09:24:24;7.93;;;2.47;;
25327;SDS011;13279;51.300;12.394;2022-10-10T09:26:59;5.73;;;2.70;;
25327;SDS011;13279;51.300;12.394;2022-10-10T09:29:31;6.13;;;2.70;;
25327;SDS011;13279;51.300;12.394;2022-10-10T09:32:07;5.93;;;2.40;;
25327;SDS011;13279;51.300;12.394;2022-10-10T09:34:40;4.93;;;2.80;;
25327;SDS011;13279;51.300;12.394;2022-10-10T09:37:11;4.30;;;2.97;;
25327;SDS011;13279;51.300;12.394;2022-10-10T09:39:42;6.37;;;2.90;;
25327;SDS011;13279;51.300;12.394;2022-10-10T09:42:15;6.93;;;2.60;;
25327;SDS011;13279;51.300;12.394;2022-10-10T09:44:45;4.77;;;2.73;;
25327;SDS011;13279;51.300;12.394;2022-10-10T09:47:12;8.70;;;2.47;;
25327;SDS011;13279;51.300;12.394;2022-10-10T09:49:43;6.07;;;3.00;;
25327;SDS011;13279;51.300;12.394;2022-10-10T09:52:18;7.53;;;2.90;;
25327;SDS011;13279;51.300;12.394;2022-10-10T09:54:54;7.53;;;2.77;;
25327;SDS011;13279;51.300;12.394;2022-10-10T09:57:27;7.53;;;3.20;;
25327;SDS011;13279;51.300;12.394;2022-10-10T09:59:59;13.87;;;3.17;;
25327;SDS011;13279;51.300;12.394;2022-10-10T10:03:02;4.00;;;2.60;;
25327;SDS011;13279;51.300;12.394;2022-10-10T10:05:38;4.63;;;2.80;;
25327;SDS011;13279;51.300;12.394;2022-10-10T10:10:54;8.03;;;4.17;;
25327;SDS011;13279;51.300;12.394;2022-10-10T10:13:24;5.60;;;2.97;;
25327;SDS011;13279;51.300;12.394;2022-10-10T10:16:02;4.93;;;3.03;;
25327;SDS011;13279;51.300;12.394;2022-10-10T10:18:42;6.40;;;3.30;;
25327;SDS011;13279;51.300;12.394;2022-10-10T10:21:13;10.43;;;3.30;;
25327;SDS011;13279;51.300;12.394;2022-10-10T10:23:49;9.90;;;3.50;;
25327;SDS011;13279;51.300;12.394;2022-10-10T10:26:19;8.10;;;3.30;;
25327;SDS011;13279;51.300;12.394;2022-10-10T10:28:48;10.23;;;3.20;;
25327;SDS011;13279;51.300;12.394;2022-10-10T10:31:23;5.47;;;3.00;;
25327;SDS011;13279;51.300;12.394;2022-10-10T10:34:09;8.40;;;3.50;;
25327;SDS011;13279;51.300;12.394;2022-10-10T10:36:52;9.30;;;3.73;;
25327;SDS011;13279;51.300;12.394;2022-10-10T10:39:32;4.13;;;2.50;;
25327;SDS011;13279;51.300;12.394;2022-10-10T10:42:09;4.77;;;2.90;;
25327;SDS011;13279;51.300;12.394;2022-10-10T10:44:47;7.37;;;2.93;;
25327;SDS011;13279;51.300;12.394;2022-10-10T10:47:24;12.80;;;2.80;;
25327;SDS011;13279;51.300;12.394;2022-10-10T10:50:01;11.23;;;3.17;;
25327;SDS011;13279;51.300;12.394;2022-10-10T10:52:44;11.03;;;2.83;;
25327;SDS011;13279;51.300;12.394;2022-10-10T10:55:44;4.33;;;2.67;;
25327;SDS011;13279;51.300;12.394;2022-10-10T10:58:28;9.53;;;2.73;;
25327;SDS011;13279;51.300;12.394;2022-10-10T11:01:23;8.37;;;3.10;;
25327;SDS011;13279;51.300;12.394;2022-10-10T11:03:57;6.53;;;2.80;;
25327;SDS011;13279;51.300;12.394;2022-10-10T11:06:33;7.83;;;3.17;;
25327;SDS011;13279;51.300;12.394;2022-10-10T11:09:09;5.07;;;2.87;;
25327;SDS011;13279;51.300;12.394;2022-10-10T11:11:53;8.60;;;3.10;;
25327;SDS011;13279;51.300;12.394;2022-10-10T11:14:40;12.80;;;3.10;;
25327;SDS011;13279;51.300;12.394;2022-10-10T11:17:23;4.03;;;2.90;;
25327;SDS011;13279;51.300;12.394;2022-10-10T11:19:58;6.07;;;3.33;;
25327;SDS011;13279;51.300;12.394;2022-10-10T11:22:30;3.30;;;2.63;;
25327;SDS011;13279;51.300;12.394;2022-10-10T11:25:04;4.70;;;2.57;;
25327;SDS011;13279;51.300;12.394;2022-10-10T11:27:40;4.20;;;2.50;;
25327;SDS011;13279;51.300;12.394;2022-10-10T11:30:13;6.40;;;3.10;;
25327;SDS011;13279;51.300;12.394;2022-10-10T11:32:46;11.00;;;3.20;;
25327;SDS011;13279;51.300;12.394;2022-10-10T11:38:09;4.70;;;2.70;;
25327;SDS011;13279;51.300;12.394;2022-10-10T11:40:48;5.43;;;2.30;;
25327;SDS011;13279;51.300;12.394;2022-10-10T11:43:22;5.67;;;2.70;;
25327;SDS011;13279;51.300;12.394;2022-10-10T11:45:58;7.20;;;3.20;;
25327;SDS011;13279;51.300;12.394;2022-10-10T11:48:35;5.43;;;2.77;;
25327;SDS011;13279;51.300;12.394;2022-10-10T11:51:12;6.23;;;2.57;;
25327;SDS011;13279;51.300;12.394;2022-10-10T11:53:48;8.40;;;2.80;;
25327;SDS011;13279;51.300;12.394;2022-10-10T11:56:27;5.67;;;2.37;;
25327;SDS011;13279;51.300;12.394;2022-10-10T11:59:01;7.10;;;2.50;;
25327;SDS011;13279;51.300;12.394;2022-10-10T12:01:35;7.47;;;2.97;;
25327;SDS011;13279;51.300;12.394;2022-10-10T12:04:07;4.33;;;2.90;;
25327;SDS011;13279;51.300;12.394;2022-10-10T12:06:35;4.10;;;2.53;;
25327;SDS011;13279;51.300;12.394;2022-10-10T12:09:09;3.17;;;2.50;;
25327;SDS011;13279;51.300;12.394;2022-10-10T12:11:44;7.23;;;3.10;;
25327;SDS011;13279;51.300;12.394;2022-10-10T12:14:18;3.37;;;2.53;;
25327;SDS011;13279;51.300;12.394;2022-10-10T12:16:47;3.73;;;3.10;;
25327;SDS011;13279;51.300;12.394;2022-10-10T12:19:16;5.93;;;2.40;;
25327;SDS011;13279;51.300;12.394;2022-10-10T12:24:33;3.87;;;2.57;;
25327;SDS011;13279;51.300;12.394;2022-10-10T12:27:23;6.70;;;3.00;;
25327;SDS011;13279;51.300;12.394;2022-10-10T12:30:10;3.93;;;2.20;;
25327;SDS011;13279;51.300;12.394;2022-10-10T12:32:49;11.00;;;2.70;;
25327;SDS011;13279;51.300;12.394;2022-10-10T12:35:34;4.30;;;2.77;;
25327;SDS011;13279;51.300;12.394;2022-10-10T12:38:18;3.97;;;2.50;;
25327;SDS011;13279;51.300;12.394;2022-10-10T12:41:07;4.50;;;2.40;;
25327;SDS011;13279;51.300;12.394;2022-10-10T12:43:41;7.33;;;2.70;;
25327;SDS011;13279;51.300;12.394;2022-10-10T12:46:38;9.80;;;2.67;;
25327;SDS011;13279;51.300;12.394;2022-10-10T12:49:17;4.77;;;2.80;;
25327;SDS011;13279;51.300;12.394;2022-10-10T12:51:57;8.67;;;2.73;;
25327;SDS011;13279;51.300;12.394;2022-10-10T12:54:29;8.60;;;2.50;;
25327;SDS011;13279;51.300;12.394;2022-10-10T12:57:12;7.13;;;2.53;;
25327;SDS011;13279;51.300;12.394;2022-10-10T12:59:44;7.50;;;2.77;;
25327;SDS011;13279;51.300;12.394;2022-10-10T13:02:15;4.13;;;2.63;;
25327;SDS011;13279;51.300;12.394;2022-10-10T13:04:46;8.17;;;2.33;;
25327;SDS011;13279;51.300;12.394;2022-10-10T13:07:14;7.43;;;3.00;;
25327;SDS011;13279;51.300;12.394;2022-10-10T13:09:44;10.50;;;3.17;;
25327;SDS011;13279;51.300;12.394;2022-10-10T13:12:20;2.80;;;2.50;;
25327;SDS011;13279;51.300;12.394;2022-10-10T13:14:53;8.60;;;2.80;;
25327;SDS011;13279;51.300;12.394;2022-10-10T13:17:23;9.40;;;2.47;;
25327;SDS011;13279;51.300;12.394;2022-10-10T13:19:52;6.30;;;2.40;;
25327;SDS011;13279;51.300;12.394;2022-10-10T13:22:21;9.03;;;2.53;;
25327;SDS011;13279;51.300;12.394;2022-10-10T13:24:51;6.20;;;2.67;;
25327;SDS011;13279;51.300;12.394;2022-10-10T13:27:19;4.30;;;2.67;;
25327;SDS011;13279;51.300;12.394;2022-10-10T13:29:50;3.63;;;2.30;;
25327;SDS011;13279;51.300;12.394;2022-10-10T13:32:21;5.10;;;2.50;;
25327;SDS011;13279;51.300;12.394;2022-10-10T13:34:52;9.87;;;3.13;;
25327;SDS011;13279;51.300;12.394;2022-10-10T13:37:22;5.50;;;2.73;;
25327;SDS011;13279;51.300;12.394;2022-10-10T13:39:50;4.30;;;3.00;;
25327;SDS011;13279;51.300;12.394;2022-10-10T13:42:29;8.37;;;3.53;;
25327;SDS011;13279;51.300;12.394;2022-10-10T13:44:59;4.50;;;2.30;;
25327;SDS011;13279;51.300;12.394;2022-10-10T13:47:45;7.77;;;2.60;;
25327;SDS011;13279;51.300;12.394;2022-10-10T13:50:20;6.93;;;2.83;;
25327;SDS011;13279;51.300;12.394;2022-10-10T13:55:48;3.40;;;2.60;;
25327;SDS011;13279;51.300;12.394;2022-10-10T13:58:17;8.67;;;2.63;;
25327;SDS011;13279;51.300;12.394;2022-10-10T14:00:52;6.93;;;2.67;;
25327;SDS011;13279;51.300;12.394;2022-10-10T14:03:22;12.83;;;2.93;;
25327;SDS011;13279;51.300;12.394;2022-10-10T14:05:50;8.37;;;3.10;;
25327;SDS011;13279;51.300;12.394;2022-10-10T14:08:19;5.60;;;2.43;;
25327;SDS011;13279;51.300;12.394;2022-10-10T14:10:55;4.33;;;2.73;;
25327;SDS011;13279;51.300;12.394;2022-10-10T14:13:26;13.63;;;3.30;;
25327;SDS011;13279;51.300;12.394;2022-10-10T14:16:07;5.83;;;2.10;;
25327;SDS011;13279;51.300;12.394;2022-10-10T14:18:37;6.17;;;2.40;;
25327;SDS011;13279;51.300;12.394;2022-10-10T14:21:05;9.97;;;3.00;;
25327;SDS011;13279;51.300;12.394;2022-10-10T14:23:34;5.60;;;2.40;;
25327;SDS011;13279;51.300;12.394;2022-10-10T14:26:02;8.97;;;2.37;;
25327;SDS011;13279;51.300;12.394;2022-10-10T14:28:33;5.67;;;2.40;;
25327;SDS011;13279;51.300;12.394;2022-10-10T14:31:03;5.57;;;2.33;;
25327;SDS011;13279;51.300;12.394;2022-10-10T14:33:30;5.97;;;2.53;;
25327;SDS011;13279;51.300;12.394;2022-10-10T14:35:59;6.80;;;3.03;;
25327;SDS011;13279;51.300;12.394;2022-10-10T14:38:27;5.67;;;2.50;;
25327;SDS011;13279;51.300;12.394;2022-10-10T14:40:55;12.23;;;3.03;;
25327;SDS011;13279;51.300;12.394;2022-10-10T14:43:22;4.93;;;2.67;;
25327;SDS011;13279;51.300;12.394;2022-10-10T14:45:50;6.90;;;2.67;;
25327;SDS011;13279;51.300;12.394;2022-10-10T14:48:18;6.57;;;2.87;;
25327;SDS011;13279;51.300;12.394;2022-10-10T14:50:46;8.00;;;3.03;;
25327;SDS011;13279;51.300;12.394;2022-10-10T14:53:17;4.40;;;2.90;;
25327;SDS011;13279;51.300;12.394;2022-10-10T14:55:45;7.73;;;3.17;;
25327;SDS011;13279;51.300;12.394;2022-10-10T14:58:14;2.50;;;2.27;;
25327;SDS011;13279;51.300;12.394;2022-10-10T15:00:42;8.68;;;2.90;;
25327;SDS011;13279;51.300;12.394;2022-10-10T15:03:10;5.72;;;2.45;;
25327;SDS011;13279;51.300;12.394;2022-10-10T15:05:38;3.77;;;2.40;;
25327;SDS011;13279;51.300;12.394;2022-10-10T15:08:06;12.13;;;2.50;;
25327;SDS011;13279;51.300;12.394;2022-10-10T15:10:35;2.43;;;2.10;;